Página principal
METAR-TAF:

METAR-TAF

Aeroportos :

Longyearbyen, Noruega

latitude: 78-15N, longitude: 015-28E, altura: 2 m

Observação actual do tempo

O boletim foi feito há 41 minutos, às 12:50 UTC
Vento 16 kt de es-sudeste
Temperatura -11°C
Humidade 66%
Pressão 1031 hPa
Visibilidade 10 km ou mais
Poucas nuvensa uma altura de 2000 ft

METAR: ENSB 211250Z 11016KT 9999 FEW020 M11/M16 Q1031 NOSIG RMK WIND 1400FT 16003KT

Hora: 14:31 (13:31 UTC)

Previsão

Previsão válida de 20 às 12 UTC a 21 às 12 UTC
Vento 12 kt de es-sudeste
Visibilidade 10 km ou mais
Poucas nuvensa uma altura de 1500 ft
Nuvens dispersasa uma altura de 2000 ft

TAF: ENSB 2012/2112 12012KT 9999 FEW015 SCT020

Observações e previsões do tempo de mais de 4000 aeroportos (mensagens METAR e TAF).

As estações disponíveis são os pontos amarelos e vermelhos sobre o mapa.

Mova o rato sobre o mapa para ver o nome da estação.

Depois clique no ponto para visualizar as observações e previsões meteorológicas.

Para alterar o mapa : clique nos botões verdes com uma cruz preta para aumentar o zoom; no botão verde com uma pitada de zoom; ou nas setas verdes para mapas adjacentes.


METAR-TAF: